sensor_id;sensor_type;location;lat;lon;timestamp;pressure;altitude;pressure_sealevel;temperature;humidity
8575;BME280;4325;42.520;27.448;2022-11-15T00:00:14;101918.75;;;11.21;100.00
8575;BME280;4325;42.520;27.448;2022-11-15T00:02:41;101919.25;;;11.18;100.00
8575;BME280;4325;42.520;27.448;2022-11-15T00:05:09;101921.41;;;11.16;100.00
8575;BME280;4325;42.520;27.448;2022-11-15T00:07:36;101913.44;;;11.14;100.00
8575;BME280;4325;42.520;27.448;2022-11-15T00:10:03;101918.91;;;11.14;100.00
8575;BME280;4325;42.520;27.448;2022-11-15T00:12:30;101919.72;;;11.15;100.00
8575;BME280;4325;42.520;27.448;2022-11-15T00:14:57;101916.50;;;11.18;100.00
8575;BME280;4325;42.520;27.448;2022-11-15T00:17:24;101920.34;;;11.17;100.00
8575;BME280;4325;42.520;27.448;2022-11-15T00:19:51;101910.09;;;11.12;100.00
8575;BME280;4325;42.520;27.448;2022-11-15T00:22:19;101909.59;;;11.15;100.00
8575;BME280;4325;42.520;27.448;2022-11-15T00:24:46;101905.94;;;11.10;100.00
8575;BME280;4325;42.520;27.448;2022-11-15T00:27:13;101902.13;;;11.11;100.00
8575;BME280;4325;42.520;27.448;2022-11-15T00:29:39;101901.53;;;11.09;100.00
8575;BME280;4325;42.520;27.448;2022-11-15T00:32:08;101898.81;;;11.09;100.00
8575;BME280;4325;42.520;27.448;2022-11-15T00:34:35;101897.13;;;11.08;100.00
8575;BME280;4325;42.520;27.448;2022-11-15T00:37:02;101895.47;;;11.07;100.00
8575;BME280;4325;42.520;27.448;2022-11-15T00:39:30;101892.47;;;11.08;100.00
8575;BME280;4325;42.520;27.448;2022-11-15T00:41:57;101889.75;;;11.08;100.00
8575;BME280;4325;42.520;27.448;2022-11-15T00:44:24;101886.16;;;11.08;100.00
8575;BME280;4325;42.520;27.448;2022-11-15T00:46:51;101883.41;;;11.08;100.00
8575;BME280;4325;42.520;27.448;2022-11-15T00:49:18;101885.69;;;11.11;100.00
8575;BME280;4325;42.520;27.448;2022-11-15T00:51:44;101882.66;;;11.12;100.00
8575;BME280;4325;42.520;27.448;2022-11-15T00:54:11;101877.44;;;11.11;100.00
8575;BME280;4325;42.520;27.448;2022-11-15T00:56:40;101887.34;;;11.12;100.00
8575;BME280;4325;42.520;27.448;2022-11-15T00:59:06;101881.03;;;11.11;100.00
8575;BME280;4325;42.520;27.448;2022-11-15T01:01:33;101880.69;;;11.08;100.00
8575;BME280;4325;42.520;27.448;2022-11-15T01:04:00;101876.88;;;11.09;100.00
8575;BME280;4325;42.520;27.448;2022-11-15T01:06:27;101875.69;;;11.05;100.00
8575;BME280;4325;42.520;27.448;2022-11-15T01:08:54;101868.06;;;11.07;100.00
8575;BME280;4325;42.520;27.448;2022-11-15T01:11:21;101869.22;;;11.11;100.00
8575;BME280;4325;42.520;27.448;2022-11-15T01:13:49;101865.91;;;11.09;100.00
8575;BME280;4325;42.520;27.448;2022-11-15T01:16:17;101871.41;;;11.09;100.00
8575;BME280;4325;42.520;27.448;2022-11-15T01:18:44;101865.91;;;11.09;100.00
8575;BME280;4325;42.520;27.448;2022-11-15T01:21:13;101870.56;;;11.08;100.00
8575;BME280;4325;42.520;27.448;2022-11-15T01:23:40;101865.91;;;11.09;100.00
8575;BME280;4325;42.520;27.448;2022-11-15T01:26:10;101876.28;;;11.07;100.00
8575;BME280;4325;42.520;27.448;2022-11-15T01:28:39;101876.28;;;11.07;100.00
8575;BME280;4325;42.520;27.448;2022-11-15T01:31:12;101861.97;;;11.05;100.00
8575;BME280;4325;42.520;27.448;2022-11-15T01:33:40;101871.56;;;11.02;100.00
8575;BME280;4325;42.520;27.448;2022-11-15T01:36:10;101876.19;;;11.02;100.00
8575;BME280;4325;42.520;27.448;2022-11-15T01:38:37;101864.97;;;11.03;100.00
8575;BME280;4325;42.520;27.448;2022-11-15T01:41:04;101866.88;;;11.03;100.00
8575;BME280;4325;42.520;27.448;2022-11-15T01:43:32;101868.56;;;11.04;100.00
8575;BME280;4325;42.520;27.448;2022-11-15T01:46:03;101866.06;;;11.02;100.00
8575;BME280;4325;42.520;27.448;2022-11-15T01:48:34;101869.03;;;11.01;100.00
8575;BME280;4325;42.520;27.448;2022-11-15T01:51:04;101866.56;;;10.99;100.00
8575;BME280;4325;42.520;27.448;2022-11-15T01:53:33;101856.34;;;10.95;100.00
8575;BME280;4325;42.520;27.448;2022-11-15T01:56:05;101859.56;;;10.92;100.00
8575;BME280;4325;42.520;27.448;2022-11-15T01:58:33;101850.19;;;10.88;100.00
8575;BME280;4325;42.520;27.448;2022-11-15T02:01:00;101855.69;;;10.88;100.00
8575;BME280;4325;42.520;27.448;2022-11-15T02:03:33;101853.00;;;10.93;100.00
8575;BME280;4325;42.520;27.448;2022-11-15T02:06:03;101849.94;;;10.89;100.00
8575;BME280;4325;42.520;27.448;2022-11-15T02:08:31;101847.94;;;10.85;100.00
8575;BME280;4325;42.520;27.448;2022-11-15T02:10:58;101839.16;;;10.83;100.00
8575;BME280;4325;42.520;27.448;2022-11-15T02:13:25;101849.00;;;10.84;100.00
8575;BME280;4325;42.520;27.448;2022-11-15T02:15:59;101848.44;;;10.82;100.00
8575;BME280;4325;42.520;27.448;2022-11-15T02:18:30;101839.94;;;10.83;100.00
8575;BME280;4325;42.520;27.448;2022-11-15T02:21:08;101843.53;;;10.84;100.00
8575;BME280;4325;42.520;27.448;2022-11-15T02:27:30;101844.72;;;10.88;100.00
8575;BME280;4325;42.520;27.448;2022-11-15T02:30:27;101842.03;;;10.93;100.00
8575;BME280;4325;42.520;27.448;2022-11-15T02:32:58;101837.16;;;10.95;100.00
8575;BME280;4325;42.520;27.448;2022-11-15T02:35:35;101843.63;;;10.89;100.00
8575;BME280;4325;42.520;27.448;2022-11-15T02:38:07;101840.31;;;10.87;100.00
8575;BME280;4325;42.520;27.448;2022-11-15T02:40:40;101834.72;;;10.82;100.00
8575;BME280;4325;42.520;27.448;2022-11-15T02:43:11;101831.91;;;10.77;100.00
8575;BME280;4325;42.520;27.448;2022-11-15T02:46:02;101831.78;;;10.72;100.00
8575;BME280;4325;42.520;27.448;2022-11-15T02:48:31;101830.75;;;10.61;100.00
8575;BME280;4325;42.520;27.448;2022-11-15T02:50:59;101828.66;;;10.51;100.00
8575;BME280;4325;42.520;27.448;2022-11-15T02:53:27;101834.56;;;10.43;100.00
8575;BME280;4325;42.520;27.448;2022-11-15T02:55:55;101826.34;;;10.43;100.00
8575;BME280;4325;42.520;27.448;2022-11-15T02:58:38;101824.47;;;10.32;100.00
8575;BME280;4325;42.520;27.448;2022-11-15T03:01:20;101827.19;;;10.32;100.00
8575;BME280;4325;42.520;27.448;2022-11-15T03:03:59;101831.03;;;10.31;100.00
8575;BME280;4325;42.520;27.448;2022-11-15T03:06:35;101821.25;;;10.35;100.00
8575;BME280;4325;42.520;27.448;2022-11-15T03:09:10;101826.81;;;10.40;100.00
8575;BME280;4325;42.520;27.448;2022-11-15T03:11:43;101824.75;;;10.47;100.00
8575;BME280;4325;42.520;27.448;2022-11-15T03:14:21;101823.09;;;10.46;100.00
8575;BME280;4325;42.520;27.448;2022-11-15T03:16:59;101820.88;;;10.43;100.00
8575;BME280;4325;42.520;27.448;2022-11-15T03:19:33;101822.41;;;10.39;100.00
8575;BME280;4325;42.520;27.448;2022-11-15T03:22:04;101825.41;;;10.38;100.00
8575;BME280;4325;42.520;27.448;2022-11-15T03:24:36;101821.81;;;10.37;100.00
8575;BME280;4325;42.520;27.448;2022-11-15T03:27:05;101823.41;;;10.33;100.00
8575;BME280;4325;42.520;27.448;2022-11-15T03:29:36;101820.09;;;10.31;100.00
8575;BME280;4325;42.520;27.448;2022-11-15T03:32:10;101821.03;;;10.25;100.00
8575;BME280;4325;42.520;27.448;2022-11-15T03:34:42;101812.59;;;10.27;100.00
8575;BME280;4325;42.520;27.448;2022-11-15T03:37:13;101802.47;;;10.27;100.00
8575;BME280;4325;42.520;27.448;2022-11-15T03:39:59;101813.31;;;10.22;100.00
8575;BME280;4325;42.520;27.448;2022-11-15T03:42:30;101812.25;;;10.23;100.00
8575;BME280;4325;42.520;27.448;2022-11-15T03:45:02;101798.31;;;10.25;100.00
8575;BME280;4325;42.520;27.448;2022-11-15T03:47:38;101795.94;;;10.28;100.00
8575;BME280;4325;42.520;27.448;2022-11-15T03:50:09;101801.16;;;10.30;100.00
8575;BME280;4325;42.520;27.448;2022-11-15T03:52:37;101796.03;;;10.33;100.00
8575;BME280;4325;42.520;27.448;2022-11-15T03:55:08;101796.34;;;10.37;100.00
8575;BME280;4325;42.520;27.448;2022-11-15T03:57:35;101787.91;;;10.38;100.00
8575;BME280;4325;42.520;27.448;2022-11-15T04:00:03;101789.06;;;10.42;100.00
8575;BME280;4325;42.520;27.448;2022-11-15T04:02:30;101794.91;;;10.46;100.00
8575;BME280;4325;42.520;27.448;2022-11-15T04:04:58;101790.22;;;10.46;100.00
8575;BME280;4325;42.520;27.448;2022-11-15T04:07:25;101795.72;;;10.46;100.00
8575;BME280;4325;42.520;27.448;2022-11-15T04:09:52;101790.22;;;10.46;100.00
8575;BME280;4325;42.520;27.448;2022-11-15T04:12:33;101787.50;;;10.46;100.00
8575;BME280;4325;42.520;27.448;2022-11-15T04:15:02;101785.28;;;10.43;100.00
8575;BME280;4325;42.520;27.448;2022-11-15T04:17:37;101785.84;;;10.45;100.00
8575;BME280;4325;42.520;27.448;2022-11-15T04:20:08;101780.97;;;10.47;100.00
8575;BME280;4325;42.520;27.448;2022-11-15T04:22:53;101775.16;;;10.44;100.00
8575;BME280;4325;42.520;27.448;2022-11-15T04:25:38;101785.28;;;10.43;100.00
8575;BME280;4325;42.520;27.448;2022-11-15T04:28:05;101773.81;;;10.46;100.00
8575;BME280;4325;42.520;27.448;2022-11-15T04:30:32;101775.75;;;10.46;100.00
8575;BME280;4325;42.520;27.448;2022-11-15T04:32:59;101782.63;;;10.48;100.00
8575;BME280;4325;42.520;27.448;2022-11-15T04:35:27;101785.00;;;10.45;100.00
8575;BME280;4325;42.520;27.448;2022-11-15T04:37:54;101777.28;;;10.42;100.00
8575;BME280;4325;42.520;27.448;2022-11-15T04:40:20;101772.56;;;10.37;100.00
8575;BME280;4325;42.520;27.448;2022-11-15T04:42:47;101776.59;;;10.35;100.00
8575;BME280;4325;42.520;27.448;2022-11-15T04:45:14;101782.66;;;10.37;100.00
8575;BME280;4325;42.520;27.448;2022-11-15T04:47:43;101776.59;;;10.35;100.00
8575;BME280;4325;42.520;27.448;2022-11-15T04:50:10;101766.97;;;10.32;100.00
8575;BME280;4325;42.520;27.448;2022-11-15T04:52:40;101768.06;;;10.31;100.00
8575;BME280;4325;42.520;27.448;2022-11-15T04:55:08;101767.22;;;10.31;100.00
8575;BME280;4325;42.520;27.448;2022-11-15T04:57:35;101765.34;;;10.31;100.00
8575;BME280;4325;42.520;27.448;2022-11-15T05:00:03;101755.94;;;10.27;100.00
8575;BME280;4325;42.520;27.448;2022-11-15T05:02:30;101760.81;;;10.25;100.00
8575;BME280;4325;42.520;27.448;2022-11-15T05:05:11;101752.28;;;10.22;100.00
8575;BME280;4325;42.520;27.448;2022-11-15T05:07:39;101743.25;;;10.21;100.00
8575;BME280;4325;42.520;27.448;2022-11-15T05:10:06;101749.19;;;10.18;100.00
8575;BME280;4325;42.520;27.448;2022-11-15T05:12:33;101750.28;;;10.17;100.00
8575;BME280;4325;42.520;27.448;2022-11-15T05:15:00;101743.63;;;10.13;100.00
8575;BME280;4325;42.520;27.448;2022-11-15T05:17:27;101743.63;;;10.13;100.00
8575;BME280;4325;42.520;27.448;2022-11-15T05:19:54;101745.88;;;10.16;100.00
8575;BME280;4325;42.520;27.448;2022-11-15T05:22:21;101742.06;;;10.17;100.00
8575;BME280;4325;42.520;27.448;2022-11-15T05:24:49;101750.03;;;10.19;100.00
8575;BME280;4325;42.520;27.448;2022-11-15T05:27:16;101754.19;;;10.21;100.00
8575;BME280;4325;42.520;27.448;2022-11-15T05:29:43;101750.13;;;10.24;100.00
8575;BME280;4325;42.520;27.448;2022-11-15T05:32:11;101757.03;;;10.26;100.00
8575;BME280;4325;42.520;27.448;2022-11-15T05:34:38;101764.50;;;10.31;100.00
8575;BME280;4325;42.520;27.448;2022-11-15T05:37:05;101763.28;;;10.38;100.00
8575;BME280;4325;42.520;27.448;2022-11-15T05:39:32;101758.72;;;10.44;100.00
8575;BME280;4325;42.520;27.448;2022-11-15T05:42:05;101765.84;;;10.45;100.00
8575;BME280;4325;42.520;27.448;2022-11-15T05:44:34;101769.16;;;10.47;100.00
8575;BME280;4325;42.520;27.448;2022-11-15T05:47:03;101765.69;;;10.51;100.00
8575;BME280;4325;42.520;27.448;2022-11-15T05:49:34;101764.13;;;10.55;100.00
8575;BME280;4325;42.520;27.448;2022-11-15T05:52:03;101766.97;;;10.60;100.00
8575;BME280;4325;42.520;27.448;2022-11-15T05:54:32;101777.50;;;10.69;100.00
8575;BME280;4325;42.520;27.448;2022-11-15T05:57:00;101782.00;;;10.75;100.00
8575;BME280;4325;42.520;27.448;2022-11-15T05:59:28;101777.09;;;10.77;100.00
8575;BME280;4325;42.520;27.448;2022-11-15T06:01:56;101782.41;;;10.83;100.00
8575;BME280;4325;42.520;27.448;2022-11-15T06:04:23;101785.81;;;10.90;100.00
8575;BME280;4325;42.520;27.448;2022-11-15T06:06:50;101784.84;;;10.96;100.00
8575;BME280;4325;42.520;27.448;2022-11-15T06:09:17;101795.06;;;11.01;100.00
8575;BME280;4325;42.520;27.448;2022-11-15T06:11:43;101792.97;;;11.08;100.00
8575;BME280;4325;42.520;27.448;2022-11-15T06:14:12;101798.97;;;11.21;100.00
8575;BME280;4325;42.520;27.448;2022-11-15T06:16:38;101800.97;;;11.26;100.00
8575;BME280;4325;42.520;27.448;2022-11-15T06:19:06;101793.66;;;11.32;100.00
8575;BME280;4325;42.520;27.448;2022-11-15T06:21:33;101797.84;;;11.39;100.00
8575;BME280;4325;42.520;27.448;2022-11-15T06:23:59;101792.44;;;11.44;100.00
8575;BME280;4325;42.520;27.448;2022-11-15T06:26:26;101796.38;;;11.48;100.00
8575;BME280;4325;42.520;27.448;2022-11-15T06:28:53;101793.09;;;11.51;100.00
8575;BME280;4325;42.520;27.448;2022-11-15T06:31:21;101801.41;;;11.56;100.00
8575;BME280;4325;42.520;27.448;2022-11-15T06:33:48;101788.84;;;11.60;100.00
8575;BME280;4325;42.520;27.448;2022-11-15T06:36:16;101788.44;;;11.68;100.00
8575;BME280;4325;42.520;27.448;2022-11-15T06:38:43;101793.22;;;11.78;100.00
8575;BME280;4325;42.520;27.448;2022-11-15T06:41:12;101785.19;;;11.93;100.00
8575;BME280;4325;42.520;27.448;2022-11-15T06:43:39;101793.38;;;12.10;100.00
8575;BME280;4325;42.520;27.448;2022-11-15T06:46:07;101793.56;;;12.25;100.00
8575;BME280;4325;42.520;27.448;2022-11-15T06:48:35;101798.66;;;12.38;100.00
8575;BME280;4325;42.520;27.448;2022-11-15T06:51:03;101802.09;;;12.50;100.00
8575;BME280;4325;42.520;27.448;2022-11-15T06:53:31;101794.53;;;12.62;98.94
8575;BME280;4325;42.520;27.448;2022-11-15T06:55:59;101796.81;;;12.70;98.17
8575;BME280;4325;42.520;27.448;2022-11-15T06:58:26;101796.63;;;12.82;98.05
8575;BME280;4325;42.520;27.448;2022-11-15T07:00:53;101792.63;;;12.94;96.87
8575;BME280;4325;42.520;27.448;2022-11-15T07:03:20;101789.38;;;13.02;96.56
8575;BME280;4325;42.520;27.448;2022-11-15T07:05:52;101799.94;;;13.10;95.69
8575;BME280;4325;42.520;27.448;2022-11-15T07:08:21;101790.66;;;13.21;94.40
8575;BME280;4325;42.520;27.448;2022-11-15T07:10:48;101793.81;;;13.35;93.39
8575;BME280;4325;42.520;27.448;2022-11-15T07:13:14;101787.56;;;13.45;92.32
8575;BME280;4325;42.520;27.448;2022-11-15T07:15:41;101785.88;;;13.44;90.19
8575;BME280;4325;42.520;27.448;2022-11-15T07:18:08;101783.09;;;13.39;89.91
8575;BME280;4325;42.520;27.448;2022-11-15T07:20:35;101782.81;;;13.35;90.23
8575;BME280;4325;42.520;27.448;2022-11-15T07:23:04;101777.91;;;13.42;90.45
8575;BME280;4325;42.520;27.448;2022-11-15T07:25:31;101776.63;;;13.55;91.98
8575;BME280;4325;42.520;27.448;2022-11-15T07:27:59;101771.97;;;13.65;95.43
8575;BME280;4325;42.520;27.448;2022-11-15T07:30:27;101772.63;;;13.82;97.27
8575;BME280;4325;42.520;27.448;2022-11-15T07:32:54;101768.56;;;14.00;98.00
8575;BME280;4325;42.520;27.448;2022-11-15T07:35:21;101770.28;;;14.21;94.55
8575;BME280;4325;42.520;27.448;2022-11-15T07:37:55;101771.13;;;14.27;90.11
8575;BME280;4325;42.520;27.448;2022-11-15T07:40:23;101775.31;;;14.34;87.04
8575;BME280;4325;42.520;27.448;2022-11-15T07:42:50;101768.44;;;14.37;86.77
8575;BME280;4325;42.520;27.448;2022-11-15T07:45:22;101769.31;;;14.42;86.43
8575;BME280;4325;42.520;27.448;2022-11-15T07:47:49;101759.38;;;14.46;83.63
8575;BME280;4325;42.520;27.448;2022-11-15T07:50:16;101762.66;;;14.43;81.71
8575;BME280;4325;42.520;27.448;2022-11-15T07:52:43;101756.66;;;14.67;81.65
8575;BME280;4325;42.520;27.448;2022-11-15T07:55:10;101750.06;;;14.93;79.88
8575;BME280;4325;42.520;27.448;2022-11-15T07:57:38;101757.50;;;14.97;77.65
8575;BME280;4325;42.520;27.448;2022-11-15T08:00:06;101762.19;;;15.12;76.12
8575;BME280;4325;42.520;27.448;2022-11-15T08:02:33;101762.72;;;15.09;75.06
8575;BME280;4325;42.520;27.448;2022-11-15T08:05:00;101754.72;;;14.92;73.93
8575;BME280;4325;42.520;27.448;2022-11-15T08:07:28;101757.75;;;14.71;74.74
8575;BME280;4325;42.520;27.448;2022-11-15T08:09:56;101755.00;;;14.76;75.42
8575;BME280;4325;42.520;27.448;2022-11-15T08:12:23;101758.88;;;14.85;75.55
8575;BME280;4325;42.520;27.448;2022-11-15T08:14:52;101756.66;;;15.07;74.02
8575;BME280;4325;42.520;27.448;2022-11-15T08:17:18;101751.38;;;15.41;71.98
8575;BME280;4325;42.520;27.448;2022-11-15T08:19:45;101751.34;;;15.66;69.81
8575;BME280;4325;42.520;27.448;2022-11-15T08:22:13;101755.97;;;15.91;66.23
8575;BME280;4325;42.520;27.448;2022-11-15T08:24:40;101753.09;;;16.16;71.34
8575;BME280;4325;42.520;27.448;2022-11-15T08:27:07;101757.13;;;16.28;69.92
8575;BME280;4325;42.520;27.448;2022-11-15T08:29:41;101750.72;;;16.38;69.20
8575;BME280;4325;42.520;27.448;2022-11-15T08:32:09;101760.72;;;16.34;66.38
8575;BME280;4325;42.520;27.448;2022-11-15T08:34:36;101745.13;;;16.48;66.26
8575;BME280;4325;42.520;27.448;2022-11-15T08:37:04;101753.22;;;16.83;63.55
8575;BME280;4325;42.520;27.448;2022-11-15T08:39:31;101754.53;;;17.25;63.09
8575;BME280;4325;42.520;27.448;2022-11-15T08:41:57;101738.38;;;17.32;58.15
8575;BME280;4325;42.520;27.448;2022-11-15T08:44:24;101744.69;;;17.08;57.02
8575;BME280;4325;42.520;27.448;2022-11-15T08:46:51;101744.94;;;17.41;56.77
8575;BME280;4325;42.520;27.448;2022-11-15T08:49:19;101731.84;;;17.75;56.48
8575;BME280;4325;42.520;27.448;2022-11-15T08:51:46;101727.44;;;18.16;52.11
8575;BME280;4325;42.520;27.448;2022-11-15T08:54:13;101717.56;;;18.48;49.63
8575;BME280;4325;42.520;27.448;2022-11-15T08:56:40;101723.41;;;18.65;49.06
8575;BME280;4325;42.520;27.448;2022-11-15T08:59:07;101718.63;;;18.52;47.73
8575;BME280;4325;42.520;27.448;2022-11-15T09:01:34;101716.06;;;18.36;47.97
8575;BME280;4325;42.520;27.448;2022-11-15T09:04:01;101717.09;;;18.40;47.70
8575;BME280;4325;42.520;27.448;2022-11-15T09:06:30;101704.06;;;18.60;46.30
8575;BME280;4325;42.520;27.448;2022-11-15T09:08:57;101699.78;;;19.45;45.57
8575;BME280;4325;42.520;27.448;2022-11-15T09:11:24;101697.50;;;20.02;44.58
8575;BME280;4325;42.520;27.448;2022-11-15T09:13:51;101689.09;;;19.80;44.13
8575;BME280;4325;42.520;27.448;2022-11-15T09:16:18;101689.47;;;19.87;42.74
8575;BME280;4325;42.520;27.448;2022-11-15T09:18:45;101689.72;;;20.84;41.97
8575;BME280;4325;42.520;27.448;2022-11-15T09:21:12;101676.94;;;21.36;40.37
8575;BME280;4325;42.520;27.448;2022-11-15T09:23:40;101672.84;;;20.80;39.70
8575;BME280;4325;42.520;27.448;2022-11-15T09:26:07;101673.59;;;20.50;41.03
8575;BME280;4325;42.520;27.448;2022-11-15T09:28:34;101673.19;;;19.94;41.44
8575;BME280;4325;42.520;27.448;2022-11-15T09:31:04;101663.88;;;19.76;42.10
8575;BME280;4325;42.520;27.448;2022-11-15T09:33:31;101658.84;;;19.64;42.77
8575;BME280;4325;42.520;27.448;2022-11-15T09:36:03;101657.72;;;19.38;42.45
8575;BME280;4325;42.520;27.448;2022-11-15T09:38:30;101657.28;;;19.72;42.73
8575;BME280;4325;42.520;27.448;2022-11-15T09:41:25;101654.41;;;20.13;41.61
8575;BME280;4325;42.520;27.448;2022-11-15T09:44:02;101647.91;;;19.82;42.00
8575;BME280;4325;42.520;27.448;2022-11-15T09:46:37;101652.13;;;19.93;41.76
8575;BME280;4325;42.520;27.448;2022-11-15T09:49:08;101641.84;;;20.51;40.64
8575;BME280;4325;42.520;27.448;2022-11-15T09:51:37;101647.41;;;20.73;40.12
8575;BME280;4325;42.520;27.448;2022-11-15T09:54:18;101645.56;;;20.69;39.88
8575;BME280;4325;42.520;27.448;2022-11-15T09:56:50;101637.41;;;21.03;38.92
8575;BME280;4325;42.520;27.448;2022-11-15T09:59:35;101639.06;;;21.04;39.03
8575;BME280;4325;42.520;27.448;2022-11-15T10:02:15;101646.88;;;20.93;39.71
8575;BME280;4325;42.520;27.448;2022-11-15T10:04:46;101639.84;;;20.96;39.49
8575;BME280;4325;42.520;27.448;2022-11-15T10:07:16;101644.41;;;21.14;38.80
8575;BME280;4325;42.520;27.448;2022-11-15T10:09:49;101642.59;;;21.66;38.33
8575;BME280;4325;42.520;27.448;2022-11-15T10:12:19;101636.06;;;21.79;37.75
8575;BME280;4325;42.520;27.448;2022-11-15T10:14:49;101629.31;;;23.00;36.17
8575;BME280;4325;42.520;27.448;2022-11-15T10:17:40;101624.19;;;23.19;35.17
8575;BME280;4325;42.520;27.448;2022-11-15T10:20:19;101625.50;;;23.51;34.79
8575;BME280;4325;42.520;27.448;2022-11-15T10:22:50;101628.78;;;23.15;34.82
8575;BME280;4325;42.520;27.448;2022-11-15T10:25:20;101617.72;;;22.81;35.21
8575;BME280;4325;42.520;27.448;2022-11-15T10:27:54;101615.53;;;23.41;35.04
8575;BME280;4325;42.520;27.448;2022-11-15T10:30:21;101605.69;;;24.35;33.71
8575;BME280;4325;42.520;27.448;2022-11-15T10:32:49;101612.25;;;25.53;31.49
8575;BME280;4325;42.520;27.448;2022-11-15T10:35:19;101612.66;;;24.94;31.32
8575;BME280;4325;42.520;27.448;2022-11-15T10:37:47;101600.97;;;24.48;32.02
8575;BME280;4325;42.520;27.448;2022-11-15T10:40:20;101602.88;;;25.13;31.60
8575;BME280;4325;42.520;27.448;2022-11-15T10:42:48;101597.06;;;25.30;31.37
8575;BME280;4325;42.520;27.448;2022-11-15T10:45:29;101594.94;;;25.39;30.90
8575;BME280;4325;42.520;27.448;2022-11-15T10:48:21;101581.47;;;26.33;30.17
8575;BME280;4325;42.520;27.448;2022-11-15T10:50:50;101583.34;;;27.46;29.11
8575;BME280;4325;42.520;27.448;2022-11-15T10:53:23;101577.50;;;27.90;27.62
8575;BME280;4325;42.520;27.448;2022-11-15T10:55:52;101573.22;;;28.72;26.69
8575;BME280;4325;42.520;27.448;2022-11-15T10:58:23;101570.75;;;29.65;25.23
8575;BME280;4325;42.520;27.448;2022-11-15T11:00:54;101579.16;;;29.35;26.52
8575;BME280;4325;42.520;27.448;2022-11-15T11:03:28;101571.81;;;29.80;26.48
8575;BME280;4325;42.520;27.448;2022-11-15T11:06:14;101578.38;;;29.87;24.87
8575;BME280;4325;42.520;27.448;2022-11-15T11:08:54;101564.81;;;28.99;26.01
8575;BME280;4325;42.520;27.448;2022-11-15T11:11:21;101564.66;;;28.08;26.51
8575;BME280;4325;42.520;27.448;2022-11-15T11:13:48;101552.88;;;27.02;27.97
8575;BME280;4325;42.520;27.448;2022-11-15T11:16:42;101550.06;;;26.15;28.86
8575;BME280;4325;42.520;27.448;2022-11-15T11:19:30;101536.75;;;26.55;28.72
8575;BME280;4325;42.520;27.448;2022-11-15T11:22:01;101542.38;;;25.72;29.51
8575;BME280;4325;42.520;27.448;2022-11-15T11:24:36;101553.53;;;24.75;31.12
8575;BME280;4325;42.520;27.448;2022-11-15T11:27:13;101543.59;;;23.80;32.71
8575;BME280;4325;42.520;27.448;2022-11-15T12:58:28;101420.25;;;28.75;26.54
8575;BME280;4325;42.520;27.448;2022-11-15T13:00:55;101417.13;;;28.58;26.39
8575;BME280;4325;42.520;27.448;2022-11-15T13:03:27;101411.69;;;29.21;26.56
8575;BME280;4325;42.520;27.448;2022-11-15T13:06:03;101414.19;;;29.26;26.05
8575;BME280;4325;42.520;27.448;2022-11-15T13:08:49;101409.84;;;29.32;26.04
8575;BME280;4325;42.520;27.448;2022-11-15T13:11:45;101410.09;;;29.20;25.60
8575;BME280;4325;42.520;27.448;2022-11-15T13:17:32;101400.59;;;27.34;27.59
8575;BME280;4325;42.520;27.448;2022-11-15T13:20:09;101397.06;;;26.21;29.00
8575;BME280;4325;42.520;27.448;2022-11-15T13:22:41;101384.03;;;26.95;28.78
8575;BME280;4325;42.520;27.448;2022-11-15T13:25:50;101393.28;;;28.52;26.66
8575;BME280;4325;42.520;27.448;2022-11-15T13:28:26;101386.44;;;29.61;25.26
8575;BME280;4325;42.520;27.448;2022-11-15T13:30:55;101391.63;;;30.33;24.90
8575;BME280;4325;42.520;27.448;2022-11-15T13:33:27;101384.53;;;30.46;24.97
8575;BME280;4325;42.520;27.448;2022-11-15T13:35:58;101386.03;;;29.59;25.22
8575;BME280;4325;42.520;27.448;2022-11-15T13:38:27;101383.84;;;27.03;27.64
8575;BME280;4325;42.520;27.448;2022-11-15T13:40:55;101376.19;;;26.06;29.27
8575;BME280;4325;42.520;27.448;2022-11-15T13:43:32;101381.28;;;25.73;29.45
8575;BME280;4325;42.520;27.448;2022-11-15T13:46:11;101377.22;;;26.30;29.45
8575;BME280;4325;42.520;27.448;2022-11-15T13:48:40;101373.66;;;26.48;28.86
8575;BME280;4325;42.520;27.448;2022-11-15T13:51:12;101373.22;;;26.62;28.72
8575;BME280;4325;42.520;27.448;2022-11-15T13:53:43;101372.28;;;26.89;28.23
8575;BME280;4325;42.520;27.448;2022-11-15T13:56:12;101364.19;;;27.22;27.87
8575;BME280;4325;42.520;27.448;2022-11-15T13:58:39;101360.13;;;27.58;27.83
8575;BME280;4325;42.520;27.448;2022-11-15T14:01:08;101357.97;;;27.71;27.35
8575;BME280;4325;42.520;27.448;2022-11-15T14:03:47;101350.34;;;27.14;28.13
8575;BME280;4325;42.520;27.448;2022-11-15T14:06:18;101353.38;;;26.23;28.71
8575;BME280;4325;42.520;27.448;2022-11-15T14:09:03;101354.59;;;25.12;29.99
8575;BME280;4325;42.520;27.448;2022-11-15T14:11:30;101361.81;;;23.80;32.33
8575;BME280;4325;42.520;27.448;2022-11-15T14:14:11;101354.84;;;22.91;33.52
8575;BME280;4325;42.520;27.448;2022-11-15T14:16:40;101356.38;;;21.49;35.65
8575;BME280;4325;42.520;27.448;2022-11-15T14:19:12;101354.88;;;20.27;38.10
8575;BME280;4325;42.520;27.448;2022-11-15T14:22:10;101346.69;;;18.89;40.98
8575;BME280;4325;42.520;27.448;2022-11-15T14:24:37;101348.06;;;17.96;43.53
8575;BME280;4325;42.520;27.448;2022-11-15T14:27:21;101335.69;;;17.29;45.85
8575;BME280;4325;42.520;27.448;2022-11-15T14:29:49;101333.78;;;16.74;48.00
8575;BME280;4325;42.520;27.448;2022-11-15T14:32:18;101318.69;;;16.19;50.21
8575;BME280;4325;42.520;27.448;2022-11-15T14:34:48;101341.38;;;15.92;53.35
8575;BME280;4325;42.520;27.448;2022-11-15T14:37:21;101335.31;;;15.66;55.83
8575;BME280;4325;42.520;27.448;2022-11-15T14:39:49;101327.78;;;15.38;57.74
8575;BME280;4325;42.520;27.448;2022-11-15T14:42:16;101321.31;;;15.19;58.71
8575;BME280;4325;42.520;27.448;2022-11-15T14:44:43;101309.91;;;14.97;60.49
8575;BME280;4325;42.520;27.448;2022-11-15T14:47:10;101319.97;;;14.78;62.31